Time;durP1;ratioP1;P1;durP2;ratioP2;P2;SDS_P1;SDS_P2;PMS_P1;PMS_P2;Temp;Humidity;BMP_temperature;BMP_pressure;BME280_temperature;BME280_humidity;BME280_pressure;Samples;Min_cycle;Max_cycle;Signal;HPM_P1;HPM_P2
2022/05/26 00:02:16;;;;;;;67.60;44.15;;;26.20;99.90;;;;;;5057839;28;20025;-64
2022/05/26 00:04:43;;;;;;;68.90;46.65;;;26.10;99.90;;;;;;5055575;28;20039;-64
2022/05/26 00:07:10;;;;;;;66.68;45.47;;;26.20;99.90;;;;;;5055999;28;20040;-64
2022/05/26 00:09:37;;;;;;;71.30;46.92;;;26.20;99.90;;;;;;5055862;28;20044;-63
2022/05/26 00:12:06;;;;;;;68.03;44.90;;;26.30;99.90;;;;;;5058738;28;20416;-64
2022/05/26 00:14:33;;;;;;;68.95;49.67;;;26.30;99.90;;;;;;5075556;28;20055;-64
2022/05/26 00:17:00;;;;;;;132.85;81.57;;;26.20;99.90;;;;;;5074559;28;20017;-64
2022/05/26 00:19:26;;;;;;;423.80;290.27;;;26.30;99.90;;;;;;5074649;28;20040;-64
2022/05/26 00:21:53;;;;;;;98.25;70.05;;;26.30;99.90;;;;;;5075648;28;20477;-63
2022/05/26 00:24:21;;;;;;;133.60;91.80;;;26.30;99.90;;;;;;5075650;28;20044;-64
2022/05/26 00:26:48;;;;;;;152.00;106.75;;;26.40;99.90;;;;;;5075581;28;20046;-64
2022/05/26 00:29:14;;;;;;;103.05;69.95;;;26.50;99.90;;;;;;5074308;28;20028;-63
2022/05/26 00:31:42;;;;;;;105.35;70.85;;;26.40;99.90;;;;;;5073810;28;20032;-63
2022/05/26 00:34:09;;;;;;;78.65;53.15;;;26.40;99.90;;;;;;5075588;28;20024;-64
2022/05/26 00:36:38;;;;;;;79.28;50.58;;;26.40;99.90;;;;;;5075450;28;20032;-64
2022/05/26 00:39:16;;;;;;;145.07;99.00;;;26.50;99.90;;;;;;5075185;28;20028;-64
2022/05/26 00:41:47;;;;;;;79.50;56.03;;;26.50;99.90;;;;;;5074986;28;20025;-63
2022/05/26 00:44:15;;;;;;;123.82;85.05;;;26.50;99.90;;;;;;5091678;23;20135;-64
2022/05/26 00:46:45;;;;;;;83.63;56.50;;;26.50;99.90;;;;;;5083428;28;20024;-64
2022/05/26 00:49:21;;;;;;;107.68;70.85;;;26.60;99.90;;;;;;5089273;28;20432;-64
2022/05/26 00:51:48;;;;;;;89.00;56.42;;;26.70;99.90;;;;;;5094930;28;20046;-64
2022/05/26 00:54:23;;;;;;;79.75;54.20;;;26.80;99.90;;;;;;5092655;28;20020;-63
2022/05/26 00:56:54;;;;;;;76.07;48.45;;;26.80;99.90;;;;;;5070861;28;20473;-64
2022/05/26 00:59:46;;;;;;;78.15;52.88;;;26.80;99.90;;;;;;5073893;28;20027;-64
2022/05/26 01:02:15;;;;;;;73.97;47.78;;;26.80;99.90;;;;;;5067634;28;20028;-63
2022/05/26 01:04:50;;;;;;;63.00;46.92;;;26.80;99.90;;;;;;5075688;28;20085;-65
2022/05/26 01:07:23;;;;;;;71.35;48.75;;;26.80;99.90;;;;;;5070905;28;20374;-64
2022/05/26 01:09:49;;;;;;;76.15;49.50;;;26.80;99.90;;;;;;5070856;28;20139;-63
2022/05/26 01:12:16;;;;;;;75.53;48.70;;;26.90;99.90;;;;;;5071283;28;20024;-64
2022/05/26 01:15:06;;;;;;;68.10;45.80;;;26.90;99.90;;;;;;5062860;28;20025;-64
2022/05/26 01:17:47;;;;;;;76.35;51.13;;;26.90;99.90;;;;;;5063443;28;20385;-64
2022/05/26 01:20:28;;;;;;;162.43;125.15;;;26.90;99.90;;;;;;5060455;28;20533;-64
2022/05/26 01:22:57;;;;;;;158.90;111.13;;;26.90;99.90;;;;;;5063149;28;20047;-64
2022/05/26 01:25:35;;;;;;;106.05;71.43;;;26.90;99.90;;;;;;5062284;28;20029;-64
2022/05/26 01:28:41;;;;;;;100.32;66.35;;;27.00;99.90;;;;;;5062347;28;20115;-64
2022/05/26 01:31:16;;;;;;;89.68;60.00;;;27.00;99.90;;;;;;5068100;28;20024;-64
2022/05/26 01:33:46;;;;;;;84.65;52.22;;;27.10;99.90;;;;;;5066041;28;20032;-64
2022/05/26 01:36:39;;;;;;;86.22;53.67;;;27.00;99.90;;;;;;5067953;28;20422;-63
2022/05/26 01:39:11;;;;;;;;;;;27.10;99.90;;;;;;5066228;28;20025;-63
2022/05/26 01:41:39;;;;;;;77.75;49.80;;;27.10;99.90;;;;;;5064350;28;19908;-64
2022/05/26 01:44:22;;;;;;;85.28;51.67;;;27.20;99.90;;;;;;5064519;28;20068;-64
2022/05/26 01:46:50;;;;;;;104.10;58.03;;;27.30;99.90;;;;;;5071651;28;20481;-64
2022/05/26 01:49:18;;;;;;;121.57;69.13;;;27.30;99.90;;;;;;5063531;28;20033;-64
2022/05/26 01:51:47;;;;;;;186.35;116.72;;;27.30;99.90;;;;;;5061210;28;20066;-64
2022/05/26 01:54:15;;;;;;;141.00;78.22;;;27.50;99.90;;;;;;5063866;28;20037;-64
2022/05/26 01:56:46;;;;;;;150.73;80.18;;;27.50;99.90;;;;;;5060470;28;20481;-65
2022/05/26 01:59:18;;;;;;;245.23;138.55;;;27.50;99.90;;;;;;5055740;28;20036;-64
2022/05/26 02:01:51;;;;;;;219.27;121.05;;;27.60;99.90;;;;;;5062610;28;20112;-64
2022/05/26 02:04:24;;;;;;;158.77;78.88;;;27.70;99.90;;;;;;5064212;28;20108;-65
2022/05/26 02:07:00;;;;;;;155.18;73.57;;;27.70;99.90;;;;;;5064290;28;20056;-64
2022/05/26 02:09:34;;;;;;;146.80;76.07;;;27.80;99.90;;;;;;5067199;28;20040;-65
2022/05/26 02:12:05;;;;;;;165.70;80.88;;;27.80;99.90;;;;;;5070623;22;20057;-63
2022/05/26 02:14:38;;;;;;;184.50;99.25;;;27.80;99.90;;;;;;5024714;28;20428;-64
2022/05/26 02:17:13;;;;;;;164.32;90.05;;;27.90;99.90;;;;;;5023460;28;20394;-64
2022/05/26 02:20:11;;;;;;;162.82;87.15;;;27.90;99.90;;;;;;5028858;28;20084;-63
2022/05/26 02:22:43;;;;;;;164.00;93.50;;;27.90;99.90;;;;;;5035420;28;20018;-65
2022/05/26 02:25:18;;;;;;;162.73;91.70;;;27.90;99.90;;;;;;5033876;28;20045;-65
2022/05/26 02:27:47;;;;;;;175.18;104.82;;;27.90;99.90;;;;;;5033492;28;20025;-66
2022/05/26 02:30:14;;;;;;;180.20;107.05;;;27.90;99.90;;;;;;5023223;28;20071;-66
2022/05/26 02:32:46;;;;;;;198.05;114.88;;;27.90;99.90;;;;;;5022795;28;20029;-68
2022/05/26 02:35:13;;;;;;;;;;;28.00;99.90;;;;;;5033079;28;20024;-71
2022/05/26 02:37:42;;;;;;;170.23;100.35;;;27.90;99.90;;;;;;5032351;28;19955;-70
2022/05/26 02:40:10;;;;;;;177.68;104.80;;;27.90;99.90;;;;;;5031283;28;20382;-70
2022/05/26 02:42:46;;;;;;;175.45;107.22;;;27.90;99.90;;;;;;5025885;28;20022;-69
2022/05/26 02:45:14;;;;;;;176.23;98.20;;;28.00;99.90;;;;;;5021319;28;20025;-72
2022/05/26 02:47:54;;;;;;;240.43;158.15;;;28.00;99.90;;;;;;5035205;28;20021;-67
2022/05/26 02:50:41;;;;;;;191.48;119.35;;;28.10;99.90;;;;;;5033748;28;20535;-68
2022/05/26 02:53:16;;;;;;;238.45;138.43;;;28.10;99.90;;;;;;5034347;28;20525;-68
2022/05/26 02:56:19;;;;;;;290.30;186.15;;;28.10;99.90;;;;;;5020833;28;20109;-68
2022/05/26 02:58:57;;;;;;;166.13;98.00;;;28.10;99.90;;;;;;4939859;28;20035;-69
2022/05/26 03:01:24;;;;;;;157.70;96.07;;;28.10;99.90;;;;;;4955120;28;20064;-69
2022/05/26 03:04:07;;;;;;;164.82;97.95;;;28.10;99.90;;;;;;4953995;29;20035;-69
2022/05/26 03:06:37;;;;;;;148.48;93.82;;;28.10;99.90;;;;;;4953349;29;20612;-69
2022/05/26 03:09:06;;;;;;;148.75;94.20;;;28.10;99.90;;;;;;4955805;29;20122;-66
2022/05/26 03:11:55;;;;;;;127.07;85.75;;;28.10;99.90;;;;;;4952603;28;20102;-65
2022/05/26 03:14:22;;;;;;;147.88;93.25;;;28.10;99.90;;;;;;4952127;29;20027;-66
2022/05/26 03:16:49;;;;;;;153.52;93.28;;;28.20;99.90;;;;;;4954693;28;20081;-69
2022/05/26 03:19:16;;;;;;;138.00;89.47;;;28.20;99.90;;;;;;4956089;29;20032;-69
2022/05/26 03:21:44;;;;;;;135.70;91.43;;;28.30;99.90;;;;;;4955136;28;20054;-68
2022/05/26 03:24:10;;;;;;;144.65;91.75;;;28.30;99.90;;;;;;4953592;29;20116;-70
2022/05/26 03:26:38;;;;;;;163.02;107.15;;;28.30;99.90;;;;;;4951883;28;20323;-67
2022/05/26 03:29:06;;;;;;;247.90;153.93;;;28.40;99.90;;;;;;4952490;28;20043;-66
2022/05/26 03:31:33;;;;;;;231.13;157.65;;;28.50;99.90;;;;;;4954574;28;20110;-70
2022/05/26 03:42:21;;;;;;;125.93;85.75;;;28.70;99.90;;;;;;5031113;28;20449;-69
2022/05/26 03:44:48;;;;;;;127.03;84.93;;;28.70;99.90;;;;;;5037130;28;20393;-67
2022/05/26 03:47:15;;;;;;;136.93;83.15;;;28.70;99.90;;;;;;5035692;28;20537;-68
2022/05/26 03:49:42;;;;;;;138.38;83.00;;;28.80;99.90;;;;;;5035074;28;20068;-68
2022/05/26 03:52:09;;;;;;;133.77;80.90;;;28.80;99.90;;;;;;5035048;28;20453;-66
2022/05/26 03:54:35;;;;;;;127.10;76.45;;;28.90;99.90;;;;;;5035474;28;20109;-67
2022/05/26 03:57:03;;;;;;;127.78;76.35;;;29.00;99.90;;;;;;5033736;28;20014;-69
2022/05/26 03:59:32;;;;;;;133.77;76.15;;;29.00;99.90;;;;;;5031325;28;20064;-65
2022/05/26 04:01:59;;;;;;;128.05;74.68;;;29.00;99.90;;;;;;5031845;28;20038;-68
2022/05/26 04:04:26;;;;;;;136.82;75.78;;;29.20;99.90;;;;;;5032612;28;20041;-66
2022/05/26 04:06:53;;;;;;;138.73;79.40;;;29.20;99.90;;;;;;5034529;28;20057;-64
2022/05/26 04:09:19;;;;;;;136.60;76.22;;;29.30;99.90;;;;;;5031444;28;20036;-65
2022/05/26 04:11:46;;;;;;;130.20;72.78;;;29.30;99.90;;;;;;5033053;28;20061;-66
2022/05/26 04:14:13;;;;;;;109.25;65.03;;;29.30;99.90;;;;;;5032708;28;20032;-66
2022/05/26 04:16:40;;;;;;;118.15;69.63;;;29.30;99.90;;;;;;5033346;28;20155;-66
2022/05/26 04:19:07;;;;;;;121.13;67.40;;;29.30;99.90;;;;;;5029745;28;20071;-65
2022/05/26 04:21:34;;;;;;;120.32;67.35;;;29.40;99.90;;;;;;5031444;28;20030;-67
2022/05/26 04:24:00;;;;;;;112.72;65.22;;;29.50;99.90;;;;;;5033167;28;20114;-64
2022/05/26 04:26:27;;;;;;;111.68;64.72;;;29.50;99.90;;;;;;5033125;28;20473;-66
2022/05/26 04:29:13;;;;;;;109.65;60.75;;;29.60;99.90;;;;;;5033772;28;20025;-67
2022/05/26 04:31:40;;;;;;;87.25;51.08;;;29.70;99.90;;;;;;5032757;28;20117;-66
2022/05/26 04:34:07;;;;;;;84.57;51.58;;;29.70;99.90;;;;;;5033559;28;20035;-66
2022/05/26 04:36:34;;;;;;;91.38;50.92;;;29.70;99.90;;;;;;5031337;28;20030;-67
2022/05/26 04:39:00;;;;;;;78.60;49.10;;;29.70;99.90;;;;;;5032979;28;20470;-67
2022/05/26 04:41:27;;;;;;;73.38;43.97;;;29.80;99.90;;;;;;5029060;28;20375;-67
2022/05/26 04:43:54;;;;;;;72.43;41.45;;;29.90;99.90;;;;;;5035086;28;20097;-68
2022/05/26 04:46:21;;;;;;;70.32;40.08;;;29.90;99.90;;;;;;5034278;28;20021;-67
2022/05/26 04:48:48;;;;;;;65.85;37.58;;;29.90;99.90;;;;;;5031032;28;20053;-68
2022/05/26 04:51:15;;;;;;;58.20;36.42;;;30.00;99.90;;;;;;5031126;28;20025;-68
2022/05/26 04:53:41;;;;;;;67.78;37.15;;;30.00;99.90;;;;;;5034060;28;20014;-67
2022/05/26 04:56:08;;;;;;;59.85;35.53;;;30.00;99.90;;;;;;5035039;28;20052;-67
2022/05/26 04:58:37;;;;;;;64.43;35.33;;;30.10;99.90;;;;;;5034717;28;20026;-68
2022/05/26 05:01:15;;;;;;;46.35;31.08;;;30.10;99.90;;;;;;5037659;28;20442;-66
2022/05/26 05:03:42;;;;;;;48.40;32.58;;;30.00;99.90;;;;;;5034833;28;20042;-64
2022/05/26 05:06:09;;;;;;;51.40;31.92;;;30.10;99.90;;;;;;5034408;28;20120;-65
2022/05/26 05:08:35;;;;;;;49.35;28.65;;;30.20;99.90;;;;;;5034920;28;20029;-66
2022/05/26 05:11:02;;;;;;;51.60;29.02;;;30.20;99.90;;;;;;5025421;28;20115;-65
2022/05/26 05:13:29;;;;;;;47.53;29.45;;;30.20;99.90;;;;;;5026089;28;20045;-65
2022/05/26 05:16:08;;;;;;;40.78;27.23;;;30.30;99.90;;;;;;5030035;28;20052;-67
2022/05/26 05:18:35;;;;;;;37.30;25.27;;;30.30;99.90;;;;;;5035295;28;20079;-65
2022/05/26 05:21:10;;;;;;;43.78;27.02;;;30.30;99.90;;;;;;5026242;28;20018;-65
2022/05/26 05:23:43;;;;;;;43.28;27.40;;;30.20;99.90;;;;;;5022480;28;20022;-65
2022/05/26 05:26:14;;;;;;;38.95;26.02;;;30.20;99.90;;;;;;5034635;28;20033;-65
2022/05/26 05:28:46;;;;;;;36.63;24.33;;;30.30;99.90;;;;;;5015714;28;20191;-67
2022/05/26 05:31:29;;;;;;;37.40;24.55;;;30.40;99.90;;;;;;5024869;28;20033;-66
2022/05/26 05:34:00;;;;;;;44.63;27.20;;;30.50;99.90;;;;;;5029228;28;20065;-62
2022/05/26 05:36:31;;;;;;;41.35;25.75;;;30.40;99.90;;;;;;5025849;28;20033;-61
2022/05/26 05:38:59;;;;;;;34.30;24.40;;;30.40;99.90;;;;;;5052268;23;20108;-61
2022/05/26 05:41:27;;;;;;;34.28;24.20;;;30.40;99.90;;;;;;5032627;28;20075;-61
2022/05/26 05:43:56;;;;;;;33.25;23.20;;;30.50;99.90;;;;;;5043245;28;20028;-61
2022/05/26 05:46:23;;;;;;;39.00;25.25;;;30.40;99.90;;;;;;5040602;28;20093;-63
2022/05/26 05:48:50;;;;;;;43.08;25.42;;;30.50;99.90;;;;;;5044402;28;20033;-63
2022/05/26 05:51:17;;;;;;;40.00;25.70;;;30.50;99.90;;;;;;5040252;28;20037;-63
2022/05/26 05:53:44;;;;;;;40.33;26.75;;;30.60;99.90;;;;;;5042917;28;20455;-63
2022/05/26 05:56:12;;;;;;;35.08;24.83;;;30.60;99.90;;;;;;5039404;28;20017;-63
2022/05/26 05:58:38;;;;;;;37.10;24.98;;;30.70;99.90;;;;;;5040676;28;20282;-61
2022/05/26 06:01:07;;;;;;;39.28;25.30;;;30.70;99.90;;;;;;5041161;28;20025;-62
2022/05/26 06:03:35;;;;;;;35.25;23.45;;;30.70;99.90;;;;;;5044415;28;20100;-62
2022/05/26 06:06:03;;;;;;;38.13;24.40;;;30.80;99.90;;;;;;5037742;28;20030;-62
2022/05/26 06:08:33;;;;;;;40.00;26.55;;;30.90;99.90;;;;;;5038958;28;20477;-62
2022/05/26 06:11:03;;;;;;;39.45;26.55;;;31.00;99.90;;;;;;5038929;28;20040;-62
2022/05/26 06:13:30;;;;;;;41.60;27.35;;;31.00;99.90;;;;;;5024531;28;20018;-63
2022/05/26 06:15:57;;;;;;;39.17;26.52;;;31.00;99.90;;;;;;5022362;28;20025;-62
2022/05/26 06:18:23;;;;;;;41.40;26.73;;;31.00;99.90;;;;;;5011722;28;20048;-62
2022/05/26 06:20:50;;;;;;;39.13;25.13;;;31.10;99.90;;;;;;5016581;28;20022;-62
2022/05/26 06:23:18;;;;;;;38.33;25.70;;;31.10;99.90;;;;;;5014200;28;20045;-61
2022/05/26 06:25:45;;;;;;;41.05;27.63;;;31.20;99.90;;;;;;5014737;28;20815;-62
2022/05/26 06:30:47;;;;;;;37.92;26.95;;;31.20;99.90;;;;;;5012945;28;20037;-65
2022/05/26 06:38:47;;;;;;;45.08;30.90;;;31.30;99.90;;;;;;5021700;28;20352;-61
2022/05/26 06:44:04;;;;;;;39.40;27.77;;;31.30;99.90;;;;;;5018557;28;20030;-61
2022/05/26 06:46:31;;;;;;;42.20;27.20;;;31.30;99.90;;;;;;5017608;28;20037;-61
2022/05/26 06:48:58;;;;;;;42.45;29.65;;;31.20;99.90;;;;;;5019985;28;20042;-62
2022/05/26 06:51:26;;;;;;;47.72;32.63;;;31.20;99.90;;;;;;5021073;28;20041;-63
2022/05/26 06:53:53;;;;;;;47.53;30.48;;;31.30;99.90;;;;;;5023049;28;20033;-60
2022/05/26 06:56:20;;;;;;;54.88;34.03;;;31.30;99.90;;;;;;5016510;28;20022;-62
2022/05/26 06:58:46;;;;;;;45.47;30.63;;;31.30;99.90;;;;;;5017266;28;20105;-68
2022/05/26 07:01:14;;;;;;;46.05;31.65;;;31.20;99.90;;;;;;5016909;28;20018;-63
2022/05/26 07:03:42;;;;;;;53.55;32.20;;;31.30;99.90;;;;;;5031381;28;20041;-63
2022/05/26 07:06:21;;;;;;;51.70;29.95;;;31.30;99.90;;;;;;5022715;28;20030;-64
2022/05/26 07:08:49;;;;;;;45.10;29.45;;;31.30;99.90;;;;;;5017053;28;20037;-64
2022/05/26 07:11:17;;;;;;;42.88;34.13;;;31.20;99.90;;;;;;5019105;28;20287;-64
2022/05/26 07:13:45;;;;;;;58.17;33.63;;;31.20;99.90;;;;;;5011240;28;20041;-64
2022/05/26 07:16:13;;;;;;;39.78;28.92;;;31.20;99.90;;;;;;5004649;28;20105;-65
2022/05/26 07:18:42;;;;;;;52.15;31.33;;;31.30;99.90;;;;;;5004745;28;20034;-65
2022/05/26 07:21:10;;;;;;;39.67;27.95;;;31.30;99.90;;;;;;5016541;28;20032;-64
2022/05/26 07:23:37;;;;;;;38.88;27.65;;;31.30;99.90;;;;;;5021444;28;20039;-64
2022/05/26 07:26:09;;;;;;;39.28;27.95;;;31.20;99.90;;;;;;5016168;28;20041;-64
2022/05/26 07:28:37;;;;;;;45.08;29.90;;;31.20;99.90;;;;;;5021575;28;20030;-65
2022/05/26 07:31:04;;;;;;;38.67;27.77;;;31.20;99.90;;;;;;5015924;28;20036;-64
2022/05/26 07:33:30;;;;;;;45.70;29.90;;;31.20;99.90;;;;;;5024930;28;20048;-63
2022/05/26 07:35:57;;;;;;;43.90;28.08;;;31.20;99.90;;;;;;5023446;28;20383;-63
2022/05/26 07:43:52;;;;;;;43.30;28.00;;;31.20;99.90;;;;;;5025723;28;20037;-64
2022/05/26 07:46:21;;;;;;;38.50;28.60;;;31.20;99.90;;;;;;5021742;28;20025;-63
2022/05/26 07:48:50;;;;;;;43.72;29.75;;;31.20;99.90;;;;;;5016761;28;20378;-62
2022/05/26 07:51:19;;;;;;;48.13;34.95;;;31.20;99.90;;;;;;5021080;28;20030;-62
2022/05/26 07:53:46;;;;;;;43.80;34.55;;;31.10;99.90;;;;;;5026583;28;20359;-64
2022/05/26 07:56:13;;;;;;;49.03;36.38;;;31.20;99.90;;;;;;5026011;28;20068;-64
2022/05/26 07:58:40;;;;;;;48.00;36.08;;;31.20;99.90;;;;;;5021756;28;20551;-64
2022/05/26 08:01:07;;;;;;;51.35;35.83;;;31.20;99.90;;;;;;5022081;28;20105;-62
2022/05/26 08:03:36;;;;;;;55.53;39.33;;;31.20;99.90;;;;;;5027917;28;20104;-63
2022/05/26 08:06:04;;;;;;;53.33;39.22;;;31.20;99.90;;;;;;5020472;28;20038;-64
2022/05/26 08:08:34;;;;;;;50.10;38.13;;;31.20;99.90;;;;;;5017311;28;20124;-64
2022/05/26 08:11:01;;;;;;;47.13;38.28;;;31.10;99.90;;;;;;5016622;28;20033;-64
2022/05/26 08:13:28;;;;;;;59.42;42.80;;;31.20;99.90;;;;;;5015512;28;20475;-63
2022/05/26 08:15:54;;;;;;;68.53;47.47;;;31.20;99.90;;;;;;5027348;28;20052;-63
2022/05/26 08:18:21;;;;;;;64.88;42.35;;;31.20;99.90;;;;;;5023332;28;20093;-64
2022/05/26 08:20:48;;;;;;;53.03;40.38;;;31.20;99.90;;;;;;5016334;28;20520;-64
2022/05/26 08:23:14;;;;;;;54.58;44.33;;;31.20;99.90;;;;;;5024971;28;20060;-63
2022/05/26 08:25:41;;;;;;;59.22;44.83;;;31.20;99.90;;;;;;5014902;28;20018;-64
2022/05/26 08:28:08;;;;;;;57.10;42.33;;;31.20;99.90;;;;;;5012516;28;20029;-62
2022/05/26 08:30:35;;;;;;;59.40;45.60;;;31.10;99.90;;;;;;5012923;28;20545;-64
2022/05/26 08:33:02;;;;;;;57.75;45.00;;;31.10;99.90;;;;;;5016358;28;20036;-63
2022/05/26 08:35:28;;;;;;;58.47;44.60;;;31.10;99.90;;;;;;5018216;28;20030;-61
2022/05/26 08:37:58;;;;;;;58.58;43.42;;;31.10;99.90;;;;;;5020248;28;20056;-62
2022/05/26 08:40:27;;;;;;;67.40;44.88;;;31.10;99.90;;;;;;5018370;28;20022;-62
2022/05/26 08:42:54;;;;;;;65.35;46.58;;;31.10;99.90;;;;;;5022283;28;20038;-62
2022/05/26 08:45:21;;;;;;;58.53;43.17;;;31.10;99.90;;;;;;5023001;28;20354;-62
2022/05/26 08:47:51;;;;;;;65.38;45.35;;;31.10;99.90;;;;;;5020618;28;20488;-63
2022/05/26 08:50:30;;;;;;;58.17;44.22;;;31.00;99.90;;;;;;5016801;28;20036;-63
2022/05/26 08:53:01;;;;;;;54.22;42.88;;;31.00;99.90;;;;;;5021298;28;20057;-63
2022/05/26 08:55:32;;;;;;;61.95;41.45;;;31.00;99.90;;;;;;5018558;28;20026;-63
2022/05/26 08:58:07;;;;;;;58.88;41.47;;;31.00;99.90;;;;;;5023219;28;20477;-63
2022/05/26 09:00:36;;;;;;;58.33;38.45;;;30.90;99.90;;;;;;5020826;28;20597;-61
2022/05/26 09:03:03;;;;;;;60.10;40.03;;;30.90;99.90;;;;;;5023805;28;20017;-63
2022/05/26 09:05:40;;;;;;;59.30;42.97;;;30.90;99.90;;;;;;5020891;28;20057;-62
2022/05/26 09:14:03;;;;;;;55.03;35.90;;;31.00;99.90;;;;;;5021895;28;20022;-63
2022/05/26 09:16:36;;;;;;;50.00;35.60;;;30.90;99.90;;;;;;5021648;28;20058;-63
2022/05/26 09:19:15;;;;;;;52.00;35.50;;;30.90;99.90;;;;;;5024307;28;20097;-63
2022/05/26 09:21:44;;;;;;;54.10;35.17;;;31.00;99.90;;;;;;5026172;28;20034;-64
2022/05/26 09:24:31;;;;;;;49.95;34.10;;;30.90;99.90;;;;;;5013408;28;20476;-64
2022/05/26 09:27:00;;;;;;;51.50;34.05;;;30.90;99.90;;;;;;5013831;28;20026;-63
2022/05/26 09:29:29;;;;;;;45.97;31.20;;;30.90;99.90;;;;;;5013825;28;20037;-63
2022/05/26 09:31:58;;;;;;;48.35;33.83;;;30.90;99.90;;;;;;5014023;28;20014;-60
2022/05/26 09:34:28;;;;;;;48.78;34.20;;;30.90;99.90;;;;;;5013841;28;20055;-61
2022/05/26 09:37:04;;;;;;;47.30;34.42;;;30.90;99.90;;;;;;5007502;28;20307;-64
2022/05/26 09:39:37;;;;;;;47.65;34.05;;;30.80;99.90;;;;;;5009331;28;20058;-62
2022/05/26 09:42:22;;;;;;;46.47;32.33;;;30.80;99.90;;;;;;5013608;28;20481;-62
2022/05/26 09:44:56;;;;;;;52.35;35.25;;;30.80;99.90;;;;;;5021144;28;20029;-60
2022/05/26 09:47:39;;;;;;;47.20;33.08;;;30.80;99.90;;;;;;5000930;28;20026;-62
2022/05/26 09:50:10;;;;;;;48.05;33.00;;;30.80;99.90;;;;;;4994305;28;20101;-62
2022/05/26 09:52:42;;;;;;;44.22;30.27;;;30.80;99.90;;;;;;5007362;28;20022;-63
2022/05/26 09:55:19;;;;;;;64.85;31.45;;;30.80;99.90;;;;;;5013348;28;20036;-63
2022/05/26 09:57:47;;;;;;;51.25;32.83;;;30.70;99.90;;;;;;5021561;28;20037;-62
2022/05/26 10:00:43;;;;;;;49.92;32.92;;;30.70;99.90;;;;;;5022299;28;20340;-64
2022/05/26 10:03:35;;;;;;;50.15;32.08;;;30.70;99.90;;;;;;4985834;28;20043;-63
2022/05/26 10:06:28;;;;;;;58.60;39.55;;;30.70;99.90;;;;;;4995933;28;20444;-63
2022/05/26 10:08:56;;;;;;;59.25;40.85;;;30.70;99.90;;;;;;4985341;28;20482;-63
2022/05/26 10:11:44;;;;;;;100.57;60.55;;;30.70;99.90;;;;;;4985466;28;20034;-63
2022/05/26 10:14:51;;;;;;;83.88;52.95;;;30.70;99.90;;;;;;4979892;28;20117;-61
2022/05/26 10:17:58;;;;;;;74.75;48.03;;;30.60;99.90;;;;;;4966980;28;20492;-64
2022/05/26 10:20:28;;;;;;;81.80;51.58;;;30.60;99.90;;;;;;4963461;28;20040;-61
2022/05/26 10:23:16;;;;;;;102.95;51.58;;;30.60;99.90;;;;;;4967062;28;20019;-62
2022/05/26 10:26:09;;;;;;;88.55;52.58;;;30.60;99.90;;;;;;4923011;29;20131;-61
2022/05/26 10:28:55;;;;;;;75.28;50.42;;;30.60;99.90;;;;;;4916005;29;20123;-61
2022/05/26 10:31:23;;;;;;;91.70;64.15;;;30.60;99.90;;;;;;4917584;29;20058;-60
2022/05/26 10:34:14;;;;;;;92.05;63.45;;;30.60;99.90;;;;;;4917649;29;20031;-60
2022/05/26 10:37:02;;;;;;;74.93;48.75;;;30.60;99.90;;;;;;4918227;29;20041;-62
2022/05/26 10:39:40;;;;;;;69.50;46.67;;;30.60;99.90;;;;;;4916854;29;20131;-62
2022/05/26 10:42:30;;;;;;;74.80;46.70;;;30.50;99.90;;;;;;4917765;29;20055;-62
2022/05/26 10:45:19;;;;;;;91.28;56.03;;;30.50;99.90;;;;;;4872023;29;20444;-62
2022/05/26 10:48:07;;;;;;;79.65;53.47;;;30.50;99.90;;;;;;4794396;29;20071;-62
2022/05/26 10:50:44;;;;;;;67.55;49.70;;;30.50;99.90;;;;;;4788943;30;20484;-62
2022/05/26 10:53:23;;;;;;;62.72;37.47;;;30.50;99.90;;;;;;4789176;30;20044;-61
2022/05/26 10:56:11;;;;;;;112.97;69.35;;;30.50;99.90;;;;;;4786384;29;20040;-62
2022/05/26 10:58:46;;;;;;;155.90;94.95;;;30.40;99.90;;;;;;4790800;29;20070;-62
2022/05/26 11:01:41;;;;;;;144.45;89.82;;;30.30;99.90;;;;;;4793961;29;20031;-62
2022/05/26 11:04:47;;;;;;;88.88;60.33;;;30.30;99.90;;;;;;4842665;29;20483;-62
2022/05/26 11:07:27;;;;;;;80.18;48.95;;;30.30;99.90;;;;;;4821619;29;20138;-62
2022/05/26 11:10:04;;;;;;;66.10;43.53;;;30.40;99.90;;;;;;4788569;29;20077;-63
2022/05/26 11:12:52;;;;;;;60.50;38.33;;;30.40;99.90;;;;;;4805746;29;20054;-62
2022/05/26 11:18:22;;;;;;;76.60;45.97;;;30.30;99.90;;;;;;4806193;29;20031;-61
2022/05/26 11:20:53;;;;;;;90.22;57.08;;;30.30;99.90;;;;;;4788290;30;20031;-63
2022/05/26 11:23:21;;;;;;;107.20;69.40;;;30.30;99.90;;;;;;4786809;29;20508;-60
2022/05/26 11:25:51;;;;;;;113.10;74.80;;;30.30;99.90;;;;;;4785075;30;20410;-62
2022/05/26 11:28:40;;;;;;;104.75;71.60;;;30.20;99.90;;;;;;4780884;30;20515;-63
2022/05/26 11:37:01;;;;;;;80.20;51.20;;;30.00;99.90;;;;;;4752526;30;20123;-62
2022/05/26 11:39:43;;;;;;;77.93;49.83;;;30.00;99.90;;;;;;4753779;30;20059;-61
2022/05/26 11:42:24;;;;;;;63.80;42.63;;;30.00;99.90;;;;;;4797445;29;20588;-62
2022/05/26 11:45:16;;;;;;;55.10;39.72;;;29.90;99.90;;;;;;4852199;29;20147;-62
2022/05/26 11:47:58;;;;;;;65.95;41.65;;;29.90;99.90;;;;;;4806922;29;20049;-62
2022/05/26 11:50:27;;;;;;;79.55;45.58;;;29.90;99.90;;;;;;4807062;29;20095;-69
2022/05/26 11:52:54;;;;;;;116.25;56.65;;;30.00;99.90;;;;;;4811019;29;20039;-67
2022/05/26 11:55:44;;;;;;;122.22;62.47;;;30.00;99.90;;;;;;4824731;29;20110;-61
2022/05/26 11:58:42;;;;;;;130.48;74.00;;;30.00;99.90;;;;;;4861345;29;20041;-60
2022/05/26 12:01:14;;;;;;;152.65;84.53;;;30.00;99.90;;;;;;4865274;29;20038;-61
2022/05/26 12:03:50;;;;;;;;;;;29.90;99.90;;;;;;4861704;29;20138;-62
2022/05/26 12:06:39;;;;;;;153.10;81.50;;;29.90;99.90;;;;;;4860837;29;20430;-61
2022/05/26 12:09:28;;;;;;;134.38;79.78;;;29.90;99.90;;;;;;4862227;29;20057;-62
2022/05/26 12:12:16;;;;;;;147.13;81.28;;;29.90;99.90;;;;;;4860739;29;20049;-62
2022/05/26 12:15:06;;;;;;;171.43;84.13;;;29.90;99.90;;;;;;4859916;29;20025;-62
2022/05/26 12:17:57;;;;;;;159.52;86.82;;;29.90;99.90;;;;;;4842044;29;20030;-63
2022/05/26 12:20:24;;;;;;;155.85;86.63;;;29.90;99.90;;;;;;4868050;29;20098;-60
2022/05/26 12:22:51;;;;;;;143.82;87.68;;;29.90;99.90;;;;;;4916286;29;20070;-60
2022/05/26 12:25:27;;;;;;;165.57;94.05;;;29.80;99.90;;;;;;4909461;29;20032;-60
2022/05/26 12:28:06;;;;;;;173.95;92.75;;;29.80;99.90;;;;;;4904977;29;20084;-61
2022/05/26 12:30:36;;;;;;;155.85;85.70;;;29.80;99.90;;;;;;4919219;28;20042;-61
2022/05/26 12:33:20;;;;;;;135.55;81.53;;;29.70;99.90;;;;;;4961573;28;20098;-62
2022/05/26 12:36:16;;;;;;;141.73;82.35;;;29.70;99.90;;;;;;4961268;28;20488;-62
2022/05/26 12:39:02;;;;;;;157.60;84.90;;;29.60;99.90;;;;;;4961728;28;20078;-63
2022/05/26 12:41:57;;;;;;;154.60;88.53;;;29.60;99.90;;;;;;4960818;28;20039;-60
2022/05/26 12:45:04;;;;;;;153.52;93.85;;;29.50;99.90;;;;;;4965047;28;20439;-62
2022/05/26 12:47:41;;;;;;;159.82;91.38;;;29.50;99.90;;;;;;4959398;28;20081;-62
2022/05/26 12:50:10;;;;;;;150.70;90.78;;;29.50;99.90;;;;;;4961097;28;20035;-60
2022/05/26 12:52:39;;;;;;;160.75;98.22;;;29.50;99.90;;;;;;4962172;28;20241;-61
2022/05/26 12:55:33;;;;;;;174.02;96.57;;;29.40;99.90;;;;;;4961035;28;20094;-64
2022/05/26 12:58:26;;;;;;;186.98;108.55;;;29.40;99.90;;;;;;4962486;28;20396;-63
2022/05/26 13:00:55;;;;;;;171.93;106.03;;;29.40;99.90;;;;;;4962393;28;20070;-62
2022/05/26 13:03:30;;;;;;;189.50;108.78;;;29.40;99.90;;;;;;4977205;28;20047;-63
2022/05/26 13:06:08;;;;;;;159.63;100.72;;;29.30;99.90;;;;;;5018407;28;20029;-61
2022/05/26 13:08:56;;;;;;;177.75;106.35;;;29.30;99.90;;;;;;5022918;28;20021;-61
2022/05/26 13:11:33;;;;;;;211.93;145.38;;;29.30;99.90;;;;;;4979689;28;20141;-63
2022/05/26 13:14:03;;;;;;;257.02;190.98;;;29.30;99.90;;;;;;4974933;28;20038;-63
2022/05/26 13:16:37;;;;;;;345.13;280.48;;;29.30;99.90;;;;;;4979533;28;20030;-64
2022/05/26 13:19:15;;;;;;;366.35;298.50;;;29.20;99.90;;;;;;4973911;28;20095;-62
2022/05/26 13:21:45;;;;;;;316.05;251.75;;;29.20;99.90;;;;;;4974486;28;20038;-63
2022/05/26 13:24:24;;;;;;;289.67;217.23;;;29.20;99.90;;;;;;4973081;28;20033;-63
2022/05/26 13:27:13;;;;;;;272.30;196.80;;;29.10;99.90;;;;;;4971511;28;21608;-63
2022/05/26 13:29:46;;;;;;;362.88;278.00;;;29.10;99.90;;;;;;4975997;28;20125;-61
2022/05/26 13:35:04;;;;;;;348.45;253.55;;;29.20;99.90;;;;;;4953779;28;20353;-62
2022/05/26 13:37:32;;;;;;;262.77;161.07;;;29.20;99.90;;;;;;4963660;28;20370;-63